Allerton, New York
Current Conditions -  °F | °C
As of 8:51 PM on Wednesday 26 Nov 2014 (Local Time) from KLGA Reporting Station
Light Snow Light Snow  
Wind Chill: -4°   Ceiling: 1400
Heat Index:   Visibility: 4mi
Dew Point:   Wind: 18mph
Humidity: 92%   Direction: 340°NNW
Pressure: 29.79"   Gusts: 29mph
Location:  40.8778°N, 73.8721°W
Report Text: KLGA 270151Z 34016G25KT 4SM -RASN BR SCT009 BKN014 OVC027 02/01 A2979 RMK AO2 PK WND 33026/0125 SLP086 P0003 T00170006
Loading
Personal Weather Stations






























Interactive Weather Map New forecast layout! Learn more

10-Day Weather Forecast

Advertisements
Track Severe Weather on mobile